首页
METAR-TAF:

METAR-TAF

机场 :

威尔克斯-巴里 / 斯克蘭頓, 宾夕法尼亚州, 美国

纬度: 41-20-20N, 经度: 075-43-36W, 海拔: 293米

当前天气观测

该预报发布于38分钟前的04:54 UTC
风速6节,风向北转西北
温度 3°C
湿度 60%
气压 1011 hPa
能見度: 16.1公里
天空无云

METAR: KAVP 020454Z 34006KT 10SM CLR 03/M04 A2986 RMK AO2 SLP113 T00281044 401170028

时间: 01:32 (05:32 UTC)

预报

该预报发布于3小时和27分钟前的02:05 UTC
预报有效从02日的 02点(UTC)到 02日的 24点(UTC)
风速7节,风向北转西北
能見度: 10公里
少量云层高于5000英尺
从 02日的 1400点(UTC)
风速12节,风向北转西北,有时为20节阵风
能見度: 10公里
多云层高于3500英尺
从 02日的 1900点(UTC)
风速15节,风向北转西北,有时为23节阵风
能見度: 10公里
散云层高于4000英尺

TAF: KAVP 020205Z 0202/0224 33007KT P6SM FEW050 FM021400 33012G20KT P6SM BKN035 FM021900 33015G23KT P6SM SCT040

超过4000个机场的气象观测和天气预报(METAR&TAF报告)。

可查询的气象台以黄色和红色小点在地图上表示。

将鼠标移到小点上方,可查看气象台名称。

然后点击查看天气观测和预报。

如需切换地图:点击带黑十字的绿色按钮放大地图;点击带横线的绿色按钮缩小地图;或者点击绿色箭头查看邻近地区的地图。


METAR-TAF: